createdAt,value
2022-09-11T00:01:19.362Z,1.13
2022-09-11T00:06:27.490Z,0.90
2022-09-11T00:11:24.068Z,1.17
2022-09-11T00:16:23.451Z,1.05
2022-09-11T00:21:18.696Z,1.00
2022-09-11T00:26:12.154Z,1.40
2022-09-11T00:31:09.369Z,1.02
2022-09-11T00:36:06.401Z,1.10
2022-09-11T00:41:02.761Z,1.20
2022-09-11T00:46:00.879Z,1.27
2022-09-11T00:50:57.805Z,1.00
2022-09-11T00:55:58.577Z,1.00
2022-09-11T01:00:56.381Z,0.95
2022-09-11T01:05:52.458Z,1.08
2022-09-11T01:11:03.784Z,1.17
2022-09-11T01:16:08.899Z,1.10
2022-09-11T01:21:34.459Z,1.10
2022-09-11T01:27:11.361Z,1.40
2022-09-11T01:32:15.919Z,0.98
2022-09-11T01:37:18.402Z,0.80
2022-09-11T01:42:17.914Z,1.00
2022-09-11T01:47:14.006Z,0.80
2022-09-11T01:52:14.011Z,1.52
2022-09-11T01:57:16.004Z,1.20
2022-09-11T02:02:18.054Z,1.10
2022-09-11T02:07:18.272Z,0.93
2022-09-11T02:12:15.132Z,0.88
2022-09-11T02:17:18.968Z,0.98
2022-09-11T02:22:12.337Z,0.95
2022-09-11T02:27:10.837Z,1.13
2022-09-11T02:32:05.085Z,0.90
2022-09-11T02:37:22.103Z,1.35
2022-09-11T02:42:45.669Z,1.10
2022-09-11T02:47:53.365Z,1.20
2022-09-11T02:52:59.764Z,0.88
2022-09-11T02:58:03.579Z,1.05
2022-09-11T03:02:56.836Z,1.02
2022-09-11T03:07:51.938Z,1.15
2022-09-11T03:12:45.254Z,1.02
2022-09-11T03:17:38.494Z,0.80
2022-09-11T03:22:31.950Z,0.90
2022-09-11T03:27:27.644Z,1.00
2022-09-11T03:32:21.177Z,1.00
2022-09-11T03:37:15.893Z,1.00
2022-09-11T03:42:12.240Z,0.88
2022-09-11T03:47:07.207Z,0.90
2022-09-11T03:52:00.592Z,1.10
2022-09-11T03:56:53.839Z,0.88
2022-09-11T04:01:50.901Z,1.00
2022-09-11T04:06:45.911Z,1.13
2022-09-11T04:11:40.199Z,0.82
2022-09-11T04:16:33.858Z,1.10
2022-09-11T04:21:27.692Z,1.20
2022-09-11T04:26:25.188Z,1.10
2022-09-11T04:31:21.330Z,1.03
2022-09-11T04:36:17.697Z,1.10
2022-09-11T04:41:11.327Z,1.08
2022-09-11T04:46:08.712Z,1.33
2022-09-11T04:51:05.447Z,1.30
2022-09-11T04:56:08.396Z,1.27
2022-09-11T05:01:02.088Z,1.10
2022-09-11T05:05:57.302Z,1.02
2022-09-11T05:10:50.541Z,1.23
2022-09-11T05:15:43.806Z,1.27
2022-09-11T05:20:36.998Z,1.20
2022-09-11T05:25:32.901Z,1.10
2022-09-11T05:30:26.314Z,1.00
2022-09-11T05:35:20.583Z,1.30
2022-09-11T05:40:14.049Z,0.98
2022-09-11T05:45:09.769Z,1.48
2022-09-11T05:50:03.258Z,0.95
2022-09-11T05:54:56.808Z,0.93
2022-09-11T05:59:50.037Z,0.82
2022-09-11T06:04:44.765Z,1.10
2022-09-11T06:09:37.993Z,1.00
2022-09-11T06:14:31.235Z,1.20
2022-09-11T06:19:24.609Z,0.98
2022-09-11T06:24:19.500Z,1.00
2022-09-11T06:29:14.819Z,1.10
2022-09-11T06:34:08.233Z,0.95
2022-09-11T06:39:02.321Z,1.20
2022-09-11T06:43:58.080Z,0.88
2022-09-11T06:48:52.879Z,1.02
2022-09-11T06:53:47.447Z,1.20
2022-09-11T06:58:41.230Z,1.00
2022-09-11T07:03:35.844Z,1.23
2022-09-11T07:08:29.267Z,1.30
2022-09-11T07:13:24.266Z,1.20
2022-09-11T07:18:18.303Z,1.60
2022-09-11T07:23:12.886Z,1.45
2022-09-11T07:28:06.364Z,1.30
2022-09-11T07:32:59.795Z,0.77
2022-09-11T07:37:53.161Z,1.30
2022-09-11T07:42:47.736Z,1.15
2022-09-11T07:47:41.181Z,1.02
2022-09-11T07:52:34.527Z,1.20
2022-09-11T07:57:28.040Z,1.10
2022-09-11T08:02:23.553Z,1.30
2022-09-11T08:07:17.089Z,1.20
2022-09-11T08:12:12.088Z,1.00
2022-09-11T08:17:05.436Z,1.02
2022-09-11T08:22:00.316Z,1.20
2022-09-11T08:26:53.546Z,1.10
2022-09-11T08:31:47.011Z,0.98
2022-09-11T08:36:40.683Z,1.00
2022-09-11T08:41:47.340Z,1.23
2022-09-11T08:46:45.558Z,1.35
2022-09-11T08:51:40.457Z,1.35
2022-09-11T08:56:37.880Z,1.00
2022-09-11T09:01:41.432Z,1.75
2022-09-11T09:06:55.242Z,1.10
2022-09-11T09:12:00.735Z,1.15
2022-09-11T09:17:02.692Z,0.90
2022-09-11T09:22:11.123Z,0.82
2022-09-11T09:27:08.582Z,0.90
2022-09-11T09:32:08.308Z,1.08
2022-09-11T09:37:07.658Z,1.08
2022-09-11T09:42:34.966Z,0.98
2022-09-11T09:47:29.697Z,1.00
2022-09-11T09:52:28.100Z,0.85
2022-09-11T09:57:29.250Z,1.00
2022-09-11T10:02:50.946Z,1.00
2022-09-11T10:07:56.941Z,0.75
2022-09-11T10:13:03.443Z,1.10
2022-09-11T10:18:24.426Z,1.10
2022-09-11T10:23:26.501Z,0.98
2022-09-11T10:28:31.044Z,0.88
2022-09-11T10:33:30.567Z,1.08
2022-09-11T10:38:32.200Z,1.20
2022-09-11T10:43:37.727Z,1.20
2022-09-11T10:48:33.325Z,1.30
2022-09-11T10:53:27.231Z,1.15
2022-09-11T10:58:26.516Z,1.05
2022-09-11T11:03:26.209Z,1.02
2022-09-11T11:09:01.524Z,1.17
2022-09-11T11:14:25.426Z,1.10
2022-09-11T11:19:40.992Z,0.82
2022-09-11T11:24:55.468Z,0.80
2022-09-11T11:30:10.728Z,1.17
2022-09-11T11:35:29.440Z,1.40
2022-09-11T11:40:36.939Z,1.17
2022-09-11T11:45:38.706Z,1.10
2022-09-11T11:50:42.211Z,1.40
2022-09-11T11:55:51.996Z,1.05
2022-09-11T12:00:55.955Z,1.20
2022-09-11T12:05:50.963Z,1.05
2022-09-11T12:10:56.432Z,1.35
2022-09-11T12:16:16.042Z,1.17
2022-09-11T12:22:06.531Z,1.10
2022-09-11T12:27:52.932Z,1.20
2022-09-11T12:32:47.907Z,1.20
2022-09-11T12:37:50.019Z,1.13
2022-09-11T12:42:59.822Z,1.08
2022-09-11T12:47:54.150Z,1.10
2022-09-11T12:52:57.819Z,1.10
2022-09-11T12:57:52.475Z,0.90
2022-09-11T13:02:55.335Z,1.17
2022-09-11T13:07:56.803Z,0.95
2022-09-11T13:12:54.021Z,1.00
2022-09-11T13:17:48.242Z,1.05
2022-09-11T13:22:41.510Z,1.10
2022-09-11T13:27:39.470Z,1.00
2022-09-11T13:32:32.918Z,1.10
2022-09-11T13:37:37.871Z,1.55
2022-09-11T13:42:31.909Z,1.10
2022-09-11T13:47:28.629Z,1.10
2022-09-11T13:52:25.453Z,1.00
2022-09-11T13:57:21.051Z,1.25
2022-09-11T14:02:50.785Z,1.40
2022-09-11T14:07:57.405Z,1.15
2022-09-11T14:12:57.985Z,1.10
2022-09-11T14:17:53.119Z,1.25
2022-09-11T14:22:46.748Z,1.10
2022-09-11T14:27:44.052Z,1.00
2022-09-11T14:32:40.084Z,1.10
2022-09-11T14:37:43.624Z,1.30
2022-09-11T14:42:38.094Z,1.10
2022-09-11T14:47:33.238Z,1.10
2022-09-11T14:52:30.881Z,1.35
2022-09-11T14:57:31.505Z,1.13
2022-09-11T15:02:28.446Z,1.30
2022-09-11T15:07:23.404Z,0.90
2022-09-11T15:12:17.602Z,1.13
2022-09-11T15:17:17.865Z,1.00
2022-09-11T15:22:13.049Z,1.08
2022-09-11T15:27:07.433Z,0.95
2022-09-11T15:32:01.885Z,0.90
2022-09-11T15:36:56.487Z,1.00
2022-09-11T15:41:49.731Z,0.90
2022-09-11T15:46:43.170Z,0.73
2022-09-11T15:51:36.652Z,1.00
2022-09-11T15:56:31.549Z,1.13
2022-09-11T16:01:27.605Z,0.68
2022-09-11T16:06:23.175Z,1.20
2022-09-11T16:11:18.180Z,0.95
2022-09-11T16:16:14.389Z,1.00
2022-09-11T16:21:08.584Z,1.00
2022-09-11T16:26:04.868Z,0.80
2022-09-11T16:30:58.154Z,0.90
2022-09-11T16:36:05.677Z,1.02
2022-09-11T16:41:03.450Z,0.90
2022-09-11T16:45:56.739Z,0.90
2022-09-11T16:50:54.413Z,1.00
2022-09-11T16:55:49.838Z,0.90
2022-09-11T17:00:44.334Z,1.20
2022-09-11T17:05:37.713Z,0.95
2022-09-11T17:10:31.563Z,1.20
2022-09-11T17:15:26.505Z,1.00
2022-09-11T17:20:20.116Z,1.20
2022-09-11T17:25:13.425Z,1.25
2022-09-11T17:30:07.809Z,1.10
2022-09-11T17:35:02.433Z,1.10
2022-09-11T17:39:56.008Z,1.20
2022-09-11T17:44:49.373Z,1.50
2022-09-11T17:49:43.047Z,1.23
2022-09-11T17:54:37.672Z,1.30
2022-09-11T17:59:31.002Z,1.10
2022-09-11T18:04:24.383Z,1.20
2022-09-11T18:09:19.737Z,1.40
2022-09-11T18:14:15.732Z,1.13
2022-09-11T18:19:09.108Z,1.20
2022-09-11T18:24:03.883Z,1.60
2022-09-11T18:29:00.106Z,1.50
2022-09-11T18:33:57.499Z,1.40
2022-09-11T18:38:51.965Z,1.60
2022-09-11T18:43:45.301Z,1.42
2022-09-11T18:54:23.726Z,1.38
2022-09-11T18:59:31.138Z,1.70
2022-09-11T19:04:35.762Z,1.60
2022-09-11T19:09:30.479Z,1.40
2022-09-11T19:14:24.024Z,1.60
2022-09-11T19:19:17.314Z,1.50
2022-09-11T19:24:16.213Z,1.80
2022-09-11T19:29:14.701Z,1.38
2022-09-11T19:34:11.808Z,1.58
2022-09-11T19:39:13.979Z,1.75
2022-09-11T19:44:19.694Z,1.95
2022-09-11T19:49:14.446Z,1.70
2022-09-11T19:54:13.248Z,1.73
2022-09-11T19:59:08.011Z,1.63
2022-09-11T20:04:03.022Z,1.80
2022-09-11T20:09:19.770Z,1.77
2022-09-11T20:14:12.286Z,1.42
2022-09-11T20:19:07.143Z,1.50
2022-09-11T20:24:00.891Z,1.60
2022-09-11T20:28:56.514Z,1.80
2022-09-11T20:33:50.740Z,1.80
2022-09-11T20:38:45.988Z,1.60
2022-09-11T20:43:39.731Z,1.80
2022-09-11T20:48:33.322Z,2.00
2022-09-11T20:53:26.533Z,2.03
2022-09-11T20:58:21.490Z,1.80
2022-09-11T21:03:14.746Z,2.00
2022-09-11T21:08:07.975Z,1.98
2022-09-11T21:13:01.205Z,2.10
2022-09-11T21:17:55.991Z,2.00
2022-09-11T21:22:49.291Z,2.30
2022-09-11T21:27:42.469Z,2.40
2022-09-11T21:32:35.716Z,2.60
2022-09-11T21:37:30.361Z,2.97
2022-09-11T21:42:23.583Z,2.75
2022-09-11T21:47:18.658Z,3.70
2022-09-11T21:52:12.057Z,2.85
2022-09-11T21:57:06.855Z,2.83
2022-09-11T22:02:01.759Z,2.40
2022-09-11T22:06:55.627Z,2.40
2022-09-11T22:11:48.986Z,2.50
2022-09-11T22:16:43.579Z,2.42
2022-09-11T22:21:36.872Z,2.55
2022-09-11T22:26:31.271Z,2.42
2022-09-11T22:31:28.212Z,2.45
2022-09-11T22:36:25.962Z,2.28
2022-09-11T22:41:20.281Z,2.42
2022-09-11T22:46:13.585Z,2.00
2022-09-11T22:51:07.339Z,2.63
2022-09-11T22:56:02.652Z,2.22
2022-09-11T23:00:57.512Z,1.77
2022-09-11T23:06:14.583Z,2.05
2022-09-11T23:11:11.384Z,2.20
2022-09-11T23:16:15.260Z,2.20
2022-09-11T23:21:08.845Z,2.00
2022-09-11T23:26:04.339Z,1.80
2022-09-11T23:30:59.185Z,2.28
2022-09-11T23:35:52.444Z,1.95
2022-09-11T23:40:45.692Z,1.92
2022-09-11T23:45:38.953Z,1.90
2022-09-11T23:50:33.912Z,1.77
2022-09-11T23:55:27.143Z,1.85
